CheckWX is a tool to help pilots better visualize weather data.  It is not intended as a substitute for an official pre-flight weather briefing.

18:02:33 UTC

KCLE METAR
Cleveland-Hopkins International Airport
Cleveland, Ohio, USA
Current

12 mins ago

KCLE 241751Z 35007KT 10SM BKN250 11/04 A3004 RMK AO2 SLP173 T01110044 10128 20072 56005
Observed
Apr-24 @ 17:51 UTC
Wind
  • 350° at 7 KTS
Visibility
10 SM
Flight Rules
VFR
Cloud Levels
  • Broken at 25,000' AGL
Temperature
11°C / 52°F
Dewpoint
C / 39°F
Humidity
62%
Altimeter
30.04" Hg
Pressure
1017.32 hPa
Previous

1 hour ago

KCLE 241651Z 01008KT 10SM BKN250 12/04 A3004 RMK AO2 SLP175 T01170039
Observed
Apr-24 @ 16:51 UTC
Wind
  • 010° at 8 KTS
Visibility
10 SM
Flight Rules
VFR
Cloud Levels
  • Broken at 25,000' AGL
Temperature
12°C / 54°F
Dewpoint
C / 39°F
Humidity
58%
Altimeter
30.04" Hg
Pressure
1017.32 hPa
Previous

2 hours ago

KCLE 241551Z 04006KT 10SM FEW021 SCT250 11/04 A3005 RMK AO2 SLP176 T01110039
Observed
Apr-24 @ 15:51 UTC
Wind
  • 040° at 6 KTS
Visibility
10 SM
Flight Rules
VFR
Cloud Levels
  • Few at 2,100' AGL
  • Scattered at 25,000' AGL
Temperature
11°C / 52°F
Dewpoint
C / 39°F
Humidity
62%
Altimeter
30.05" Hg
Pressure
1017.62 hPa